sensor_id;sensor_type;location;lat;lon;timestamp;pressure;altitude;pressure_sealevel;temperature;humidity
55010;BME280;40903;51.638;7.528;2022-08-18T00:02:11;100650.09;;;18.92;99.77
55010;BME280;40903;51.638;7.528;2022-08-18T00:04:38;100660.69;;;18.90;99.91
55010;BME280;40903;51.638;7.528;2022-08-18T00:07:05;100646.75;;;18.86;99.27
55010;BME280;40903;51.638;7.528;2022-08-18T00:09:33;100654.91;;;18.83;98.80
55010;BME280;40903;51.638;7.528;2022-08-18T00:12:01;100656.44;;;18.80;99.69
55010;BME280;40903;51.638;7.528;2022-08-18T00:14:27;100661.38;;;18.75;100.00
55010;BME280;40903;51.638;7.528;2022-08-18T00:16:53;100666.00;;;18.71;100.00
55010;BME280;40903;51.638;7.528;2022-08-18T00:19:19;100664.72;;;18.68;100.00
55010;BME280;40903;51.638;7.528;2022-08-18T00:21:44;100659.97;;;18.69;100.00
55010;BME280;40903;51.638;7.528;2022-08-18T00:24:10;100653.66;;;18.68;100.00
55010;BME280;40903;51.638;7.528;2022-08-18T00:26:35;100655.97;;;18.66;100.00
55010;BME280;40903;51.638;7.528;2022-08-18T00:29:00;100650.09;;;18.68;100.00
55010;BME280;40903;51.638;7.528;2022-08-18T00:31:26;100653.56;;;18.65;100.00
55010;BME280;40903;51.638;7.528;2022-08-18T00:33:51;100649.41;;;18.59;100.00
55010;BME280;40903;51.638;7.528;2022-08-18T00:36:17;100642.63;;;18.56;100.00
55010;BME280;40903;51.638;7.528;2022-08-18T00:38:42;100650.13;;;18.56;100.00
55010;BME280;40903;51.638;7.528;2022-08-18T00:41:07;100648.47;;;18.55;100.00
55010;BME280;40903;51.638;7.528;2022-08-18T00:43:41;100646.06;;;18.53;100.00
55010;BME280;40903;51.638;7.528;2022-08-18T00:46:20;100651.94;;;18.52;100.00
55010;BME280;40903;51.638;7.528;2022-08-18T00:48:47;100642.41;;;18.49;100.00
55010;BME280;40903;51.638;7.528;2022-08-18T00:51:26;100652.50;;;18.45;100.00
55010;BME280;40903;51.638;7.528;2022-08-18T00:54:00;100645.72;;;18.43;100.00
55010;BME280;40903;51.638;7.528;2022-08-18T00:56:32;100645.28;;;18.41;100.00
55010;BME280;40903;51.638;7.528;2022-08-18T00:59:03;100652.28;;;18.38;100.00
55010;BME280;40903;51.638;7.528;2022-08-18T01:01:31;100652.59;;;18.37;100.00
55010;BME280;40903;51.638;7.528;2022-08-18T01:04:03;100649.75;;;18.33;100.00
55010;BME280;40903;51.638;7.528;2022-08-18T01:06:35;100654.00;;;18.31;100.00
55010;BME280;40903;51.638;7.528;2022-08-18T01:09:03;100649.94;;;18.28;100.00
55010;BME280;40903;51.638;7.528;2022-08-18T01:11:29;100649.16;;;18.28;100.00
55010;BME280;40903;51.638;7.528;2022-08-18T01:13:54;100649.00;;;18.24;100.00
55010;BME280;40903;51.638;7.528;2022-08-18T01:16:21;100646.56;;;18.23;100.00
55010;BME280;40903;51.638;7.528;2022-08-18T01:19:06;100635.44;;;18.19;100.00
55010;BME280;40903;51.638;7.528;2022-08-18T01:21:56;100626.56;;;18.14;100.00
55010;BME280;40903;51.638;7.528;2022-08-18T01:24:27;100631.94;;;18.10;100.00
55010;BME280;40903;51.638;7.528;2022-08-18T01:27:13;100631.81;;;18.07;100.00
55010;BME280;40903;51.638;7.528;2022-08-18T01:29:51;100628.59;;;18.05;100.00
55010;BME280;40903;51.638;7.528;2022-08-18T01:32:20;100624.56;;;18.02;100.00
55010;BME280;40903;51.638;7.528;2022-08-18T01:34:47;100623.31;;;18.00;100.00
55010;BME280;40903;51.638;7.528;2022-08-18T01:37:18;100620.41;;;17.96;100.00
55010;BME280;40903;51.638;7.528;2022-08-18T01:39:44;100621.91;;;17.94;100.00
55010;BME280;40903;51.638;7.528;2022-08-18T01:42:11;100635.22;;;17.92;100.00
55010;BME280;40903;51.638;7.528;2022-08-18T01:44:37;100629.72;;;17.92;100.00
55010;BME280;40903;51.638;7.528;2022-08-18T01:47:06;100628.47;;;17.89;100.00
55010;BME280;40903;51.638;7.528;2022-08-18T01:49:31;100630.88;;;17.91;100.00
55010;BME280;40903;51.638;7.528;2022-08-18T01:51:57;100626.94;;;17.92;100.00
55010;BME280;40903;51.638;7.528;2022-08-18T01:54:22;100629.25;;;17.90;100.00
55010;BME280;40903;51.638;7.528;2022-08-18T01:56:47;100632.69;;;17.87;100.00
55010;BME280;40903;51.638;7.528;2022-08-18T01:59:14;100642.44;;;17.84;100.00
55010;BME280;40903;51.638;7.528;2022-08-18T02:01:42;100640.06;;;17.83;100.00
55010;BME280;40903;51.638;7.528;2022-08-18T02:04:08;100638.75;;;17.81;100.00
55010;BME280;40903;51.638;7.528;2022-08-18T02:06:36;100645.75;;;17.78;100.00
55010;BME280;40903;51.638;7.528;2022-08-18T02:09:03;100638.63;;;17.77;100.00
55010;BME280;40903;51.638;7.528;2022-08-18T02:11:28;100640.13;;;17.75;100.00
55010;BME280;40903;51.638;7.528;2022-08-18T02:13:53;100648.28;;;17.71;100.00
55010;BME280;40903;51.638;7.528;2022-08-18T02:16:19;100654.59;;;17.72;100.00
55010;BME280;40903;51.638;7.528;2022-08-18T02:18:44;100653.31;;;17.69;100.00
55010;BME280;40903;51.638;7.528;2022-08-18T02:21:12;100646.53;;;17.67;100.00
55010;BME280;40903;51.638;7.528;2022-08-18T02:23:39;100661.00;;;17.64;100.00
55010;BME280;40903;51.638;7.528;2022-08-18T02:26:07;100658.56;;;17.62;100.00
55010;BME280;40903;51.638;7.528;2022-08-18T02:28:34;100658.56;;;17.62;100.00
55010;BME280;40903;51.638;7.528;2022-08-18T02:31:07;100643.91;;;17.70;100.00
55010;BME280;40903;51.638;7.528;2022-08-18T02:33:33;100644.69;;;17.71;100.00
55010;BME280;40903;51.638;7.528;2022-08-18T02:35:59;100640.78;;;17.72;100.00
55010;BME280;40903;51.638;7.528;2022-08-18T02:38:24;100637.25;;;17.71;100.00
55010;BME280;40903;51.638;7.528;2022-08-18T02:40:57;100642.75;;;17.71;100.00
55010;BME280;40903;51.638;7.528;2022-08-18T02:43:24;100642.91;;;17.75;100.00
55010;BME280;40903;51.638;7.528;2022-08-18T02:45:49;100639.59;;;17.81;100.00
55010;BME280;40903;51.638;7.528;2022-08-18T02:48:15;100646.50;;;17.87;100.00
55010;BME280;40903;51.638;7.528;2022-08-18T02:50:43;100645.47;;;17.91;100.00
55010;BME280;40903;51.638;7.528;2022-08-18T02:53:12;100643.31;;;17.97;100.00
55010;BME280;40903;51.638;7.528;2022-08-18T02:55:47;100645.50;;;18.03;100.00
55010;BME280;40903;51.638;7.528;2022-08-18T02:58:12;100638.16;;;18.07;100.00
55010;BME280;40903;51.638;7.528;2022-08-18T03:00:38;100639.22;;;18.15;100.00
55010;BME280;40903;51.638;7.528;2022-08-18T03:03:03;100640.94;;;18.19;100.00
55010;BME280;40903;51.638;7.528;2022-08-18T03:05:29;100641.50;;;18.25;100.00
55010;BME280;40903;51.638;7.528;2022-08-18T03:07:54;100643.41;;;18.33;100.00
55010;BME280;40903;51.638;7.528;2022-08-18T03:10:20;100645.94;;;18.38;100.00
55010;BME280;40903;51.638;7.528;2022-08-18T03:12:45;100659.53;;;18.43;100.00
55010;BME280;40903;51.638;7.528;2022-08-18T03:15:11;100655.25;;;18.45;100.00
55010;BME280;40903;51.638;7.528;2022-08-18T03:17:37;100645.94;;;18.50;100.00
55010;BME280;40903;51.638;7.528;2022-08-18T03:20:04;100645.72;;;18.55;100.00
55010;BME280;40903;51.638;7.528;2022-08-18T03:22:29;100649.75;;;18.57;100.00
55010;BME280;40903;51.638;7.528;2022-08-18T03:24:56;100651.81;;;18.60;100.00
55010;BME280;40903;51.638;7.528;2022-08-18T03:27:21;100650.00;;;18.64;100.00
55010;BME280;40903;51.638;7.528;2022-08-18T03:29:47;100648.16;;;18.68;100.00
55010;BME280;40903;51.638;7.528;2022-08-18T03:32:12;100647.78;;;18.70;100.00
55010;BME280;40903;51.638;7.528;2022-08-18T03:34:37;100643.66;;;18.76;100.00
55010;BME280;40903;51.638;7.528;2022-08-18T03:37:03;100648.47;;;18.79;100.00
55010;BME280;40903;51.638;7.528;2022-08-18T03:39:28;100656.44;;;18.80;100.00
55010;BME280;40903;51.638;7.528;2022-08-18T03:41:54;100645.03;;;18.82;100.00
55010;BME280;40903;51.638;7.528;2022-08-18T03:44:21;100641.09;;;18.83;100.00
55010;BME280;40903;51.638;7.528;2022-08-18T03:46:48;100645.84;;;18.82;100.00
55010;BME280;40903;51.638;7.528;2022-08-18T03:49:14;100638.34;;;18.83;100.00
55010;BME280;40903;51.638;7.528;2022-08-18T03:51:42;100638.00;;;18.84;100.00
55010;BME280;40903;51.638;7.528;2022-08-18T03:54:08;100635.25;;;18.84;100.00
55010;BME280;40903;51.638;7.528;2022-08-18T03:56:36;100636.53;;;18.87;100.00
55010;BME280;40903;51.638;7.528;2022-08-18T03:59:23;100650.34;;;18.87;100.00
55010;BME280;40903;51.638;7.528;2022-08-18T04:01:50;100647.22;;;18.88;100.00
55010;BME280;40903;51.638;7.528;2022-08-18T04:04:20;100649.19;;;18.88;100.00
55010;BME280;40903;51.638;7.528;2022-08-18T04:06:49;100648.81;;;18.89;100.00
55010;BME280;40903;51.638;7.528;2022-08-18T04:09:16;100648.47;;;18.91;100.00
55010;BME280;40903;51.638;7.528;2022-08-18T04:11:43;100641.81;;;18.92;100.00
55010;BME280;40903;51.638;7.528;2022-08-18T04:14:14;100651.69;;;18.93;100.00
55010;BME280;40903;51.638;7.528;2022-08-18T04:16:40;100647.53;;;18.99;100.00
55010;BME280;40903;51.638;7.528;2022-08-18T04:19:07;100660.91;;;18.97;100.00
55010;BME280;40903;51.638;7.528;2022-08-18T04:21:36;100665.28;;;18.98;100.00
55010;BME280;40903;51.638;7.528;2022-08-18T04:24:02;100666.44;;;18.97;100.00
55010;BME280;40903;51.638;7.528;2022-08-18T04:26:34;100658.13;;;18.97;100.00
55010;BME280;40903;51.638;7.528;2022-08-18T04:29:00;100661.25;;;18.95;100.00
55010;BME280;40903;51.638;7.528;2022-08-18T04:31:26;100667.56;;;18.96;100.00
55010;BME280;40903;51.638;7.528;2022-08-18T04:33:52;100666.44;;;18.97;100.00
55010;BME280;40903;51.638;7.528;2022-08-18T04:36:17;100666.44;;;18.97;100.00
55010;BME280;40903;51.638;7.528;2022-08-18T04:38:43;100664.13;;;18.99;100.00
55010;BME280;40903;51.638;7.528;2022-08-18T04:41:11;100661.00;;;19.00;100.00
55010;BME280;40903;51.638;7.528;2022-08-18T04:43:37;100662.63;;;19.01;100.00
55010;BME280;40903;51.638;7.528;2022-08-18T04:46:03;100667.00;;;19.02;100.00
55010;BME280;40903;51.638;7.528;2022-08-18T04:48:30;100669.44;;;19.04;100.00
55010;BME280;40903;51.638;7.528;2022-08-18T04:51:19;100669.06;;;19.05;100.00
55010;BME280;40903;51.638;7.528;2022-08-18T04:53:46;100673.91;;;19.08;100.00
55010;BME280;40903;51.638;7.528;2022-08-18T04:56:25;100682.22;;;19.08;100.00
55010;BME280;40903;51.638;7.528;2022-08-18T04:58:57;100678.28;;;19.09;100.00
55010;BME280;40903;51.638;7.528;2022-08-18T05:01:27;100691.28;;;19.09;100.00
55010;BME280;40903;51.638;7.528;2022-08-18T05:03:55;100695.34;;;19.11;100.00
55010;BME280;40903;51.638;7.528;2022-08-18T05:06:22;100700.03;;;19.11;100.00
55010;BME280;40903;51.638;7.528;2022-08-18T05:08:52;100703.25;;;19.13;100.00
55010;BME280;40903;51.638;7.528;2022-08-18T05:11:20;100704.09;;;19.13;100.00
55010;BME280;40903;51.638;7.528;2022-08-18T05:13:46;100701.78;;;19.15;100.00
55010;BME280;40903;51.638;7.528;2022-08-18T05:16:12;100703.88;;;19.18;100.00
55010;BME280;40903;51.638;7.528;2022-08-18T05:18:38;100706.75;;;19.22;100.00
55010;BME280;40903;51.638;7.528;2022-08-18T05:21:08;100709.63;;;19.25;100.00
55010;BME280;40903;51.638;7.528;2022-08-18T05:23:44;100712.97;;;19.31;100.00
55010;BME280;40903;51.638;7.528;2022-08-18T05:26:10;100699.22;;;19.34;100.00
55010;BME280;40903;51.638;7.528;2022-08-18T05:28:37;100699.22;;;19.34;100.00
55010;BME280;40903;51.638;7.528;2022-08-18T05:31:08;100699.34;;;19.38;100.00
55010;BME280;40903;51.638;7.528;2022-08-18T05:33:34;100700.06;;;19.35;100.00
55010;BME280;40903;51.638;7.528;2022-08-18T05:36:03;100707.19;;;19.36;100.00
55010;BME280;40903;51.638;7.528;2022-08-18T05:38:52;100702.44;;;19.36;100.00
55010;BME280;40903;51.638;7.528;2022-08-18T05:41:26;100702.13;;;19.38;100.00
55010;BME280;40903;51.638;7.528;2022-08-18T05:43:54;100705.22;;;19.36;100.00
55010;BME280;40903;51.638;7.528;2022-08-18T05:46:29;100701.28;;;19.37;100.00
55010;BME280;40903;51.638;7.528;2022-08-18T05:48:56;100703.38;;;19.40;100.00
55010;BME280;40903;51.638;7.528;2022-08-18T05:51:34;100705.09;;;19.45;100.00
55010;BME280;40903;51.638;7.528;2022-08-18T05:54:03;100704.84;;;19.50;100.00
55010;BME280;40903;51.638;7.528;2022-08-18T05:56:50;100708.19;;;19.55;100.00
55010;BME280;40903;51.638;7.528;2022-08-18T05:59:31;100709.69;;;19.53;100.00
55010;BME280;40903;51.638;7.528;2022-08-18T06:05:12;100710.13;;;19.55;100.00
55010;BME280;40903;51.638;7.528;2022-08-18T06:07:50;100719.25;;;19.55;100.00
55010;BME280;40903;51.638;7.528;2022-08-18T06:10:16;100716.81;;;19.54;100.00
55010;BME280;40903;51.638;7.528;2022-08-18T06:12:46;100725.94;;;19.54;100.00
55010;BME280;40903;51.638;7.528;2022-08-18T06:15:18;100723.97;;;19.55;100.00
55010;BME280;40903;51.638;7.528;2022-08-18T06:24:01;100727.19;;;19.57;100.00
55010;BME280;40903;51.638;7.528;2022-08-18T06:26:36;100734.09;;;19.63;100.00
55010;BME280;40903;51.638;7.528;2022-08-18T06:31:55;100731.19;;;19.71;99.91
55010;BME280;40903;51.638;7.528;2022-08-18T06:37:18;100740.97;;;19.81;100.00
55010;BME280;40903;51.638;7.528;2022-08-18T06:39:47;100738.31;;;19.84;99.30
55010;BME280;40903;51.638;7.528;2022-08-18T06:42:17;100751.78;;;19.86;99.22
55010;BME280;40903;51.638;7.528;2022-08-18T06:44:49;100749.91;;;19.89;99.50
55010;BME280;40903;51.638;7.528;2022-08-18T06:50:39;100757.63;;;19.96;96.99
55010;BME280;40903;51.638;7.528;2022-08-18T06:52:38;100759.16;;;19.93;97.14
55010;BME280;40903;51.638;7.528;2022-08-18T06:55:17;100754.66;;;19.89;97.35
55010;BME280;40903;51.638;7.528;2022-08-18T06:57:57;100763.06;;;19.92;97.55
55010;BME280;40903;51.638;7.528;2022-08-18T07:00:26;100765.03;;;19.92;97.37
55010;BME280;40903;51.638;7.528;2022-08-18T07:03:10;100757.75;;;19.88;97.95
55010;BME280;40903;51.638;7.528;2022-08-18T07:06:28;100764.91;;;19.88;98.88
55010;BME280;40903;51.638;7.528;2022-08-18T07:09:32;100764.22;;;19.92;98.59
55010;BME280;40903;51.638;7.528;2022-08-18T07:12:04;100771.38;;;19.92;98.62
55010;BME280;40903;51.638;7.528;2022-08-18T07:14:31;100767.91;;;19.95;98.70
55010;BME280;40903;51.638;7.528;2022-08-18T07:17:11;100771.56;;;19.99;97.78
55010;BME280;40903;51.638;7.528;2022-08-18T07:19:36;100767.34;;;20.02;98.13
55010;BME280;40903;51.638;7.528;2022-08-18T07:22:12;100763.53;;;20.06;98.03
55010;BME280;40903;51.638;7.528;2022-08-18T07:24:44;100750.56;;;20.10;97.86
55010;BME280;40903;51.638;7.528;2022-08-18T07:27:15;100757.13;;;20.18;97.22
55010;BME280;40903;51.638;7.528;2022-08-18T07:32:24;100756.97;;;20.26;96.39
55010;BME280;40903;51.638;7.528;2022-08-18T07:34:54;100765.00;;;20.31;96.55
55010;BME280;40903;51.638;7.528;2022-08-18T07:37:32;100763.16;;;20.35;95.79
55010;BME280;40903;51.638;7.528;2022-08-18T07:43:04;100761.28;;;20.39;95.78
55010;BME280;40903;51.638;7.528;2022-08-18T07:45:39;100754.59;;;20.40;95.81
55010;BME280;40903;51.638;7.528;2022-08-18T07:56:02;100757.72;;;20.54;94.20
55010;BME280;40903;51.638;7.528;2022-08-18T07:59:13;100752.63;;;20.56;94.25
55010;BME280;40903;51.638;7.528;2022-08-18T08:06:53;100758.97;;;20.84;93.34
55010;BME280;40903;51.638;7.528;2022-08-18T08:09:45;100760.72;;;20.92;93.29
55010;BME280;40903;51.638;7.528;2022-08-18T08:12:41;100762.44;;;20.97;91.45
55010;BME280;40903;51.638;7.528;2022-08-18T08:20:48;100764.56;;;21.03;89.89
55010;BME280;40903;51.638;7.528;2022-08-18T08:24:00;100755.53;;;21.06;90.62
55010;BME280;40903;51.638;7.528;2022-08-18T08:27:10;100765.22;;;21.12;90.39
55010;BME280;40903;51.638;7.528;2022-08-18T08:32:12;100756.56;;;21.33;90.43
55010;BME280;40903;51.638;7.528;2022-08-18T08:34:48;100752.16;;;21.47;88.91
55010;BME280;40903;51.638;7.528;2022-08-18T08:37:20;100746.66;;;21.66;88.22
55010;BME280;40903;51.638;7.528;2022-08-18T08:39:58;100746.25;;;21.83;87.22
55010;BME280;40903;51.638;7.528;2022-08-18T08:42:40;100757.75;;;22.01;84.63
55010;BME280;40903;51.638;7.528;2022-08-18T08:45:32;100763.88;;;22.09;84.15
55010;BME280;40903;51.638;7.528;2022-08-18T08:48:15;100781.63;;;22.24;84.21
55010;BME280;40903;51.638;7.528;2022-08-18T08:50:50;100774.16;;;22.28;81.03
55010;BME280;40903;51.638;7.528;2022-08-18T08:53:22;100770.38;;;22.36;81.88
55010;BME280;40903;51.638;7.528;2022-08-18T08:55:55;100783.72;;;22.46;82.15
55010;BME280;40903;51.638;7.528;2022-08-18T08:58:42;100785.78;;;22.52;81.19
55010;BME280;40903;51.638;7.528;2022-08-18T09:01:19;100789.81;;;22.55;80.04
55010;BME280;40903;51.638;7.528;2022-08-18T09:04:00;100792.00;;;22.65;78.70
55010;BME280;40903;51.638;7.528;2022-08-18T09:06:42;100791.38;;;22.75;80.21
55010;BME280;40903;51.638;7.528;2022-08-18T09:18:11;100789.84;;;23.00;77.65
55010;BME280;40903;51.638;7.528;2022-08-18T09:20:50;100789.94;;;23.03;76.01
55010;BME280;40903;51.638;7.528;2022-08-18T09:23:25;100794.63;;;22.99;76.67
55010;BME280;40903;51.638;7.528;2022-08-18T09:25:54;100799.38;;;22.99;76.68
55010;BME280;40903;51.638;7.528;2022-08-18T09:28:41;100798.59;;;22.98;76.95
55010;BME280;40903;51.638;7.528;2022-08-18T09:31:17;100793.06;;;23.02;76.59
55010;BME280;40903;51.638;7.528;2022-08-18T09:39:32;100788.06;;;23.33;73.89
55010;BME280;40903;51.638;7.528;2022-08-18T09:42:38;100784.38;;;23.52;74.66
55010;BME280;40903;51.638;7.528;2022-08-18T09:45:08;100788.75;;;23.79;72.07
55010;BME280;40903;51.638;7.528;2022-08-18T09:57:31;100788.88;;;24.15;70.85
55010;BME280;40903;51.638;7.528;2022-08-18T10:10:29;100800.50;;;24.20;69.91
55010;BME280;40903;51.638;7.528;2022-08-18T10:15:47;100801.38;;;24.28;70.63
55010;BME280;40903;51.638;7.528;2022-08-18T10:21:16;100805.16;;;24.13;67.46
55010;BME280;40903;51.638;7.528;2022-08-18T10:28:59;100801.00;;;23.97;69.67
55010;BME280;40903;51.638;7.528;2022-08-18T10:31:27;100806.09;;;23.95;70.27
55010;BME280;40903;51.638;7.528;2022-08-18T10:34:07;100798.16;;;23.93;68.23
55010;BME280;40903;51.638;7.528;2022-08-18T10:39:13;100794.88;;;23.88;70.69
55010;BME280;40903;51.638;7.528;2022-08-18T10:41:50;100788.53;;;23.91;69.96
55010;BME280;40903;51.638;7.528;2022-08-18T10:44:18;100796.97;;;23.94;69.20
55010;BME280;40903;51.638;7.528;2022-08-18T10:46:47;100781.84;;;23.95;70.32
55010;BME280;40903;51.638;7.528;2022-08-18T10:52:19;100785.59;;;24.06;69.05
55010;BME280;40903;51.638;7.528;2022-08-18T10:54:54;100789.38;;;24.24;69.25
55010;BME280;40903;51.638;7.528;2022-08-18T11:00:38;100783.66;;;24.79;66.92
55010;BME280;40903;51.638;7.528;2022-08-18T11:03:16;100776.41;;;25.15;64.92
55010;BME280;40903;51.638;7.528;2022-08-18T11:05:43;100787.84;;;25.43;64.86
55010;BME280;40903;51.638;7.528;2022-08-18T11:08:13;100782.00;;;25.65;63.84
55010;BME280;40903;51.638;7.528;2022-08-18T11:10:43;100775.84;;;26.03;61.00
55010;BME280;40903;51.638;7.528;2022-08-18T11:16:06;100784.09;;;26.60;57.20
55010;BME280;40903;51.638;7.528;2022-08-18T11:18:43;100773.69;;;26.71;57.51
55010;BME280;40903;51.638;7.528;2022-08-18T11:26:29;100770.13;;;26.92;57.18
55010;BME280;40903;51.638;7.528;2022-08-18T11:28:55;100763.72;;;26.98;57.54
55010;BME280;40903;51.638;7.528;2022-08-18T11:31:21;100752.94;;;27.07;57.15
55010;BME280;40903;51.638;7.528;2022-08-18T11:33:47;100744.97;;;27.23;56.06
55010;BME280;40903;51.638;7.528;2022-08-18T11:36:14;100749.72;;;27.51;56.43
55010;BME280;40903;51.638;7.528;2022-08-18T11:38:40;100753.69;;;27.64;54.84
55010;BME280;40903;51.638;7.528;2022-08-18T11:41:23;100758.13;;;27.51;53.52
55010;BME280;40903;51.638;7.528;2022-08-18T11:43:55;100755.38;;;27.30;53.24
55010;BME280;40903;51.638;7.528;2022-08-18T11:46:25;100755.34;;;27.23;54.78
55010;BME280;40903;51.638;7.528;2022-08-18T11:48:51;100754.56;;;27.19;55.03
55010;BME280;40903;51.638;7.528;2022-08-18T11:51:23;100746.16;;;27.08;53.63
55010;BME280;40903;51.638;7.528;2022-08-18T11:53:58;100742.53;;;26.94;54.79
55010;BME280;40903;51.638;7.528;2022-08-18T11:56:27;100739.34;;;26.74;55.34
55010;BME280;40903;51.638;7.528;2022-08-18T12:04:07;100735.72;;;26.60;55.97
55010;BME280;40903;51.638;7.528;2022-08-18T12:06:36;100742.88;;;26.57;55.13
55010;BME280;40903;51.638;7.528;2022-08-18T12:09:05;100740.91;;;26.65;56.35
55010;BME280;40903;51.638;7.528;2022-08-18T12:11:35;100745.72;;;26.68;55.28
55010;BME280;40903;51.638;7.528;2022-08-18T12:14:17;100750.50;;;26.60;52.92
55010;BME280;40903;51.638;7.528;2022-08-18T12:16:44;100744.09;;;26.56;53.15
55010;BME280;40903;51.638;7.528;2022-08-18T12:19:12;100742.91;;;26.61;54.27
55010;BME280;40903;51.638;7.528;2022-08-18T12:21:39;100742.13;;;26.78;54.09
55010;BME280;40903;51.638;7.528;2022-08-18T12:24:12;100732.13;;;26.87;52.52
55010;BME280;40903;51.638;7.528;2022-08-18T12:26:40;100720.16;;;26.97;51.46
55010;BME280;40903;51.638;7.528;2022-08-18T12:29:06;100716.16;;;27.02;52.09
55010;BME280;40903;51.638;7.528;2022-08-18T12:31:31;100719.38;;;27.14;52.15
55010;BME280;40903;51.638;7.528;2022-08-18T12:33:56;100719.34;;;27.25;52.84
55010;BME280;40903;51.638;7.528;2022-08-18T12:36:22;100720.13;;;27.32;51.50
55010;BME280;40903;51.638;7.528;2022-08-18T12:38:47;100724.53;;;27.40;51.41
55010;BME280;40903;51.638;7.528;2022-08-18T12:41:12;100715.31;;;27.50;50.53
55010;BME280;40903;51.638;7.528;2022-08-18T12:43:39;100712.44;;;27.68;53.66
55010;BME280;40903;51.638;7.528;2022-08-18T12:46:05;100722.88;;;27.78;49.81
55010;BME280;40903;51.638;7.528;2022-08-18T12:48:30;100724.84;;;27.88;50.77
55010;BME280;40903;51.638;7.528;2022-08-18T12:50:56;100723.59;;;27.96;49.90
55010;BME280;40903;51.638;7.528;2022-08-18T12:53:26;100736.78;;;28.06;50.66
55010;BME280;40903;51.638;7.528;2022-08-18T12:55:52;100744.81;;;27.97;48.16
55010;BME280;40903;51.638;7.528;2022-08-18T12:58:17;100760.09;;;27.89;48.26
55010;BME280;40903;51.638;7.528;2022-08-18T13:00:42;100760.50;;;27.80;47.80
55010;BME280;40903;51.638;7.528;2022-08-18T13:03:08;100764.09;;;27.81;48.06
55010;BME280;40903;51.638;7.528;2022-08-18T13:05:34;100752.50;;;27.79;48.90
55010;BME280;40903;51.638;7.528;2022-08-18T13:08:01;100753.69;;;27.74;48.32
55010;BME280;40903;51.638;7.528;2022-08-18T13:10:27;100752.06;;;27.70;49.05
55010;BME280;40903;51.638;7.528;2022-08-18T13:12:52;100746.91;;;27.61;49.10
55010;BME280;40903;51.638;7.528;2022-08-18T13:15:18;100736.09;;;27.60;49.58
55010;BME280;40903;51.638;7.528;2022-08-18T13:17:43;100718.44;;;27.70;51.67
55010;BME280;40903;51.638;7.528;2022-08-18T13:20:12;100715.19;;;27.96;52.74
55010;BME280;40903;51.638;7.528;2022-08-18T13:22:38;100697.72;;;28.43;49.84
55010;BME280;40903;51.638;7.528;2022-08-18T13:25:10;100699.66;;;29.07;47.73
55010;BME280;40903;51.638;7.528;2022-08-18T13:27:37;100700.75;;;29.60;45.61
55010;BME280;40903;51.638;7.528;2022-08-18T13:30:12;100700.59;;;29.71;44.47
55010;BME280;40903;51.638;7.528;2022-08-18T13:32:38;100698.75;;;29.61;43.49
55010;BME280;40903;51.638;7.528;2022-08-18T13:35:05;100710.91;;;29.44;44.61
55010;BME280;40903;51.638;7.528;2022-08-18T13:37:31;100712.59;;;29.38;44.42
55010;BME280;40903;51.638;7.528;2022-08-18T13:39:58;100721.59;;;29.22;44.71
55010;BME280;40903;51.638;7.528;2022-08-18T13:42:24;100713.31;;;29.05;44.68
55010;BME280;40903;51.638;7.528;2022-08-18T13:44:50;100705.41;;;28.89;44.02
55010;BME280;40903;51.638;7.528;2022-08-18T13:47:19;100692.63;;;28.81;45.47
55010;BME280;40903;51.638;7.528;2022-08-18T13:49:45;100699.19;;;28.64;46.61
55010;BME280;40903;51.638;7.528;2022-08-18T13:52:11;100696.81;;;28.59;44.81
55010;BME280;40903;51.638;7.528;2022-08-18T13:54:38;100698.50;;;28.47;46.14
55010;BME280;40903;51.638;7.528;2022-08-18T13:57:04;100694.53;;;28.41;45.47
55010;BME280;40903;51.638;7.528;2022-08-18T13:59:30;100694.91;;;28.46;44.37
55010;BME280;40903;51.638;7.528;2022-08-18T14:01:59;100684.50;;;28.43;45.88
55010;BME280;40903;51.638;7.528;2022-08-18T14:04:25;100678.47;;;28.45;46.97
55010;BME280;40903;51.638;7.528;2022-08-18T14:06:52;100667.19;;;28.55;46.83
55010;BME280;40903;51.638;7.528;2022-08-18T14:09:18;100677.53;;;28.61;46.13
55010;BME280;40903;51.638;7.528;2022-08-18T14:11:43;100672.66;;;28.69;46.84
55010;BME280;40903;51.638;7.528;2022-08-18T14:14:09;100673.00;;;28.78;46.37
55010;BME280;40903;51.638;7.528;2022-08-18T14:16:34;100674.22;;;28.77;45.02
55010;BME280;40903;51.638;7.528;2022-08-18T14:19:00;100681.50;;;28.67;44.86
55010;BME280;40903;51.638;7.528;2022-08-18T14:21:47;100680.47;;;28.48;44.23
55010;BME280;40903;51.638;7.528;2022-08-18T14:24:32;100672.38;;;28.56;44.04
55010;BME280;40903;51.638;7.528;2022-08-18T14:27:18;100677.50;;;28.68;43.30
55010;BME280;40903;51.638;7.528;2022-08-18T14:29:44;100674.22;;;28.77;42.86
55010;BME280;40903;51.638;7.528;2022-08-18T14:32:12;100664.22;;;28.72;44.66
55010;BME280;40903;51.638;7.528;2022-08-18T14:34:39;100658.19;;;28.77;44.81
55010;BME280;40903;51.638;7.528;2022-08-18T14:37:05;100666.19;;;28.75;41.15
55010;BME280;40903;51.638;7.528;2022-08-18T14:39:31;100666.66;;;28.70;40.97
55010;BME280;40903;51.638;7.528;2022-08-18T14:41:56;100668.03;;;28.49;43.97
55010;BME280;40903;51.638;7.528;2022-08-18T14:44:23;100670.50;;;28.40;44.56
55010;BME280;40903;51.638;7.528;2022-08-18T14:46:48;100664.50;;;28.38;44.98
55010;BME280;40903;51.638;7.528;2022-08-18T14:49:13;100668.16;;;28.31;45.10
55010;BME280;40903;51.638;7.528;2022-08-18T14:51:39;100666.66;;;28.06;43.05
55010;BME280;40903;51.638;7.528;2022-08-18T14:54:11;100671.09;;;28.03;44.23
55010;BME280;40903;51.638;7.528;2022-08-18T14:56:36;100675.88;;;28.06;44.81